Time;durP1;ratioP1;P1;durP2;ratioP2;P2;SDS_P1;SDS_P2;PMS_P1;PMS_P2;Temp;Humidity;BMP_temperature;BMP_pressure;BME280_temperature;BME280_humidity;BME280_pressure;Samples;Min_cycle;Max_cycle;Signal;HPM_P1;HPM_P2
2021/04/23 00:01:52;;;;;;;3.15;2.30;;;18.10;49.10;;;;;;5092631;28;20541;-67
2021/04/23 00:04:18;;;;;;;2.13;1.92;;;18.10;49.10;;;;;;5075596;28;20246;-64
2021/04/23 00:06:48;;;;;;;3.00;1.95;;;18.10;49.10;;;;;;5075407;28;20173;-65
2021/04/23 00:09:19;;;;;;;2.83;1.95;;;18.10;49.10;;;;;;5075505;28;20215;-67
2021/04/23 00:11:54;;;;;;;3.58;2.28;;;18.10;49.00;;;;;;5093425;28;20169;-67
2021/04/23 00:14:22;;;;;;;3.08;2.03;;;18.10;49.10;;;;;;5093374;28;20632;-65
2021/04/23 00:16:48;;;;;;;2.70;1.90;;;18.00;49.00;;;;;;5092760;28;20199;-67
2021/04/23 00:19:16;;;;;;;2.63;2.38;;;18.00;49.00;;;;;;5093195;28;20188;-68
2021/04/23 00:21:42;;;;;;;3.67;2.28;;;18.00;49.00;;;;;;5093207;28;20263;-68
2021/04/23 00:24:08;;;;;;;2.45;2.20;;;18.00;49.00;;;;;;5092830;28;20563;-65
2021/04/23 00:26:34;;;;;;;3.10;2.13;;;18.00;49.00;;;;;;5093014;28;20222;-64
2021/04/23 00:28:59;;;;;;;3.13;2.28;;;18.00;49.00;;;;;;5093303;28;20169;-68
2021/04/23 00:31:25;;;;;;;3.45;2.40;;;18.10;49.10;;;;;;5092708;28;20177;-63
2021/04/23 00:33:51;;;;;;;3.30;2.10;;;18.00;49.00;;;;;;5092894;28;20181;-65
2021/04/23 00:36:16;;;;;;;2.20;2.10;;;18.00;49.00;;;;;;5093354;28;20173;-65
2021/04/23 00:38:42;;;;;;;2.25;2.00;;;18.00;49.00;;;;;;5092314;28;20174;-66
2021/04/23 00:41:17;;;;;;;2.85;2.30;;;18.00;49.00;;;;;;5093276;28;20200;-67
2021/04/23 00:43:44;;;;;;;3.97;2.70;;;18.00;49.00;;;;;;5074385;28;20188;-67
2021/04/23 00:46:10;;;;;;;2.70;2.50;;;18.00;49.00;;;;;;5075366;28;20165;-65
2021/04/23 00:48:44;;;;;;;2.88;2.17;;;18.00;49.00;;;;;;5092688;28;20170;-63
2021/04/23 00:51:11;;;;;;;2.80;2.53;;;17.90;49.00;;;;;;5092506;28;20177;-64
2021/04/23 00:53:39;;;;;;;2.97;2.30;;;18.00;49.00;;;;;;5074985;28;20602;-65
2021/04/23 00:56:07;;;;;;;2.90;2.28;;;17.90;49.00;;;;;;5075057;28;20251;-64
2021/04/23 00:58:33;;;;;;;2.47;2.20;;;17.90;49.00;;;;;;5074055;28;20173;-65
2021/04/23 01:01:01;;;;;;;3.45;2.00;;;17.90;49.00;;;;;;5092917;28;20265;-69
2021/04/23 01:03:28;;;;;;;3.80;2.42;;;17.90;49.00;;;;;;5092946;28;20728;-66
2021/04/23 01:05:54;;;;;;;3.45;2.45;;;17.90;49.00;;;;;;5074282;28;20176;-68
2021/04/23 01:08:25;;;;;;;2.35;1.90;;;17.90;49.00;;;;;;5093136;28;20174;-66
2021/04/23 01:10:54;;;;;;;2.90;2.10;;;17.90;49.00;;;;;;5092657;28;20585;-66
2021/04/23 01:13:20;;;;;;;2.92;2.70;;;17.90;49.00;;;;;;5092386;28;20170;-68
2021/04/23 01:15:45;;;;;;;3.08;2.05;;;17.80;48.90;;;;;;5092392;28;20576;-67
2021/04/23 01:18:11;;;;;;;3.22;2.03;;;17.90;49.00;;;;;;5092719;28;20698;-65
2021/04/23 01:20:36;;;;;;;2.88;2.40;;;17.80;48.90;;;;;;5091728;28;20232;-66
2021/04/23 01:23:02;;;;;;;2.33;2.10;;;17.80;48.90;;;;;;5092593;28;20205;-67
2021/04/23 01:25:28;;;;;;;4.72;2.20;;;17.80;48.90;;;;;;5092381;28;20297;-65
2021/04/23 01:27:53;;;;;;;3.08;2.50;;;17.80;49.00;;;;;;5091923;28;20169;-66
2021/04/23 01:30:20;;;;;;;2.63;1.98;;;17.80;49.00;;;;;;5093624;28;20645;-68
2021/04/23 01:32:46;;;;;;;2.50;2.30;;;17.80;49.00;;;;;;5096307;28;20170;-64
2021/04/23 01:35:15;;;;;;;2.67;2.30;;;17.80;49.00;;;;;;5078159;28;20252;-66
2021/04/23 01:37:41;;;;;;;2.33;2.03;;;17.80;49.00;;;;;;5096331;28;20162;-66
2021/04/23 01:40:07;;;;;;;2.75;2.33;;;17.80;49.00;;;;;;5095873;28;20280;-67
2021/04/23 01:42:33;;;;;;;2.25;1.92;;;17.80;49.00;;;;;;5096002;28;20742;-66
2021/04/23 01:44:59;;;;;;;2.30;2.00;;;17.80;49.00;;;;;;5096388;28;20216;-67
2021/04/23 01:47:27;;;;;;;2.13;1.92;;;17.70;49.00;;;;;;5095680;28;20636;-69
2021/04/23 01:49:54;;;;;;;2.42;2.22;;;17.70;49.00;;;;;;5096288;28;20194;-65
2021/04/23 01:52:19;;;;;;;3.55;2.35;;;17.70;49.00;;;;;;5078066;28;20214;-64
2021/04/23 01:54:46;;;;;;;3.08;2.03;;;17.70;49.00;;;;;;5095318;28;20178;-65
2021/04/23 01:57:12;;;;;;;3.03;2.35;;;17.70;48.90;;;;;;5096090;28;20231;-66
2021/04/23 01:59:38;;;;;;;2.75;2.20;;;17.70;49.00;;;;;;5095799;28;20170;-67
2021/04/23 02:02:04;;;;;;;2.45;2.25;;;17.70;49.00;;;;;;5077339;28;20254;-65
2021/04/23 02:04:29;;;;;;;2.33;2.13;;;17.70;49.00;;;;;;5095740;28;20587;-67
2021/04/23 02:06:55;;;;;;;2.58;2.20;;;17.70;49.00;;;;;;5095951;28;20174;-68
2021/04/23 02:09:20;;;;;;;2.33;2.13;;;17.70;49.00;;;;;;5060916;28;20188;-67
2021/04/23 02:11:47;;;;;;;2.38;2.15;;;17.70;49.00;;;;;;5077627;28;20219;-67
2021/04/23 02:14:13;;;;;;;2.88;2.30;;;17.60;49.60;;;;;;5077717;28;20162;-65
2021/04/23 02:16:38;;;;;;;2.72;2.22;;;17.60;48.90;;;;;;5094996;28;20219;-65
2021/04/23 02:19:05;;;;;;;3.13;2.13;;;17.70;49.00;;;;;;5095795;28;20265;-66
2021/04/23 02:21:31;;;;;;;4.45;2.38;;;17.60;49.00;;;;;;5077422;28;20201;-68
2021/04/23 02:23:57;;;;;;;2.38;2.10;;;17.60;48.90;;;;;;5094859;28;20235;-65
2021/04/23 02:26:22;;;;;;;3.67;2.40;;;17.60;48.90;;;;;;5095473;28;20591;-67
2021/04/23 02:28:49;;;;;;;2.85;2.60;;;17.60;49.00;;;;;;5095270;28;20200;-64
2021/04/23 02:31:17;;;;;;;2.88;2.58;;;17.60;48.90;;;;;;5077122;28;20170;-68
2021/04/23 02:33:44;;;;;;;2.33;2.13;;;17.60;49.00;;;;;;5077342;28;20166;-65
2021/04/23 02:36:09;;;;;;;3.75;2.60;;;17.60;49.00;;;;;;5094803;28;20173;-66
2021/04/23 02:38:35;;;;;;;3.35;2.50;;;17.60;49.00;;;;;;5095112;28;20204;-66
2021/04/23 02:41:01;;;;;;;2.67;2.33;;;17.60;49.00;;;;;;5060402;28;20176;-68
2021/04/23 02:43:38;;;;;;;3.00;2.20;;;17.60;49.00;;;;;;5076637;28;20177;-68
2021/04/23 02:46:04;;;;;;;3.15;2.67;;;17.50;49.00;;;;;;5061228;28;20158;-65
2021/04/23 02:48:31;;;;;;;2.83;2.50;;;17.60;49.00;;;;;;5060079;28;20547;-67
2021/04/23 02:51:03;;;;;;;2.45;2.25;;;17.50;48.90;;;;;;5076484;28;20194;-64
2021/04/23 02:53:29;;;;;;;4.38;2.63;;;17.50;49.00;;;;;;5094934;28;20176;-67
2021/04/23 02:55:55;;;;;;;4.40;2.75;;;17.50;49.00;;;;;;5077020;28;20543;-66
2021/04/23 02:58:21;;;;;;;3.85;3.08;;;17.50;49.00;;;;;;5076334;28;20174;-66
2021/04/23 03:00:50;;;;;;;3.85;2.58;;;17.50;49.00;;;;;;5076587;28;20221;-66
2021/04/23 03:03:16;;;;;;;3.20;2.90;;;17.50;49.00;;;;;;5060660;28;20209;-66
2021/04/23 03:05:43;;;;;;;3.88;2.50;;;17.50;49.00;;;;;;5093827;28;20205;-66
2021/04/23 03:08:08;;;;;;;3.63;2.88;;;17.50;49.00;;;;;;5060291;28;20174;-69
2021/04/23 03:10:36;;;;;;;3.75;2.90;;;17.50;49.00;;;;;;5094595;28;20172;-66
2021/04/23 03:13:06;;;;;;;3.85;2.53;;;17.50;49.00;;;;;;5094117;28;20170;-66
2021/04/23 03:15:32;;;;;;;3.88;3.10;;;17.40;48.90;;;;;;5094363;28;20621;-67
2021/04/23 03:17:57;;;;;;;3.30;2.90;;;17.40;48.90;;;;;;5094902;28;20260;-66
2021/04/23 03:20:24;;;;;;;3.05;2.75;;;17.40;49.00;;;;;;5059188;28;20640;-68
2021/04/23 03:22:49;;;;;;;3.13;2.40;;;17.40;49.00;;;;;;5076160;28;20209;-65
2021/04/23 03:25:15;;;;;;;4.20;2.80;;;17.40;49.00;;;;;;5094238;28;20739;-65
2021/04/23 03:27:41;;;;;;;3.00;2.70;;;17.40;48.90;;;;;;5093448;28;20626;-65
2021/04/23 03:30:09;;;;;;;3.05;2.75;;;17.40;49.00;;;;;;5076414;28;20170;-63
2021/04/23 03:32:35;;;;;;;3.58;2.42;;;17.40;49.00;;;;;;5075321;28;20279;-65
2021/04/23 03:35:01;;;;;;;3.13;2.80;;;17.40;49.00;;;;;;5076283;28;20256;-65
2021/04/23 03:37:26;;;;;;;2.80;2.50;;;17.40;49.00;;;;;;5094364;28;20632;-66
2021/04/23 03:39:52;;;;;;;3.70;2.72;;;17.40;49.00;;;;;;5093448;28;20227;-67
2021/04/23 03:42:18;;;;;;;2.50;2.30;;;17.40;49.00;;;;;;5059205;28;20695;-67
2021/04/23 03:44:43;;;;;;;5.35;2.60;;;17.40;49.10;;;;;;5093674;28;20166;-67
2021/04/23 03:47:09;;;;;;;4.20;2.83;;;17.30;49.00;;;;;;5075259;28;20272;-64
2021/04/23 03:49:35;;;;;;;3.30;2.20;;;17.30;49.00;;;;;;5058889;28;20162;-63
2021/04/23 03:52:00;;;;;;;2.92;2.60;;;17.30;49.00;;;;;;5042636;28;20241;-67
2021/04/23 03:54:26;;;;;;;3.00;2.40;;;17.30;49.00;;;;;;5074809;28;20686;-67
2021/04/23 03:56:52;;;;;;;2.58;2.30;;;17.30;49.00;;;;;;5075558;28;20215;-65
2021/04/23 03:59:18;;;;;;;2.83;2.28;;;17.30;49.00;;;;;;5059035;28;20617;-66
2021/04/23 04:01:43;;;;;;;3.63;2.78;;;17.30;49.00;;;;;;5092804;28;20300;-68
2021/04/23 04:04:09;;;;;;;3.58;2.70;;;17.30;49.10;;;;;;5075534;28;20201;-67
2021/04/23 04:06:34;;;;;;;2.88;2.55;;;17.30;49.10;;;;;;5075590;28;20182;-66
2021/04/23 04:09:00;;;;;;;3.88;2.72;;;17.30;49.00;;;;;;5093079;28;20166;-67
2021/04/23 04:11:26;;;;;;;3.58;2.60;;;17.30;49.10;;;;;;5075674;28;20182;-67
2021/04/23 04:13:51;;;;;;;3.08;2.35;;;17.30;49.00;;;;;;5093097;28;20206;-69
2021/04/23 04:16:17;;;;;;;2.53;2.33;;;17.30;49.10;;;;;;5074862;28;20166;-65
2021/04/23 04:18:42;;;;;;;3.58;2.60;;;17.20;49.00;;;;;;5075353;28;20223;-66
2021/04/23 04:21:08;;;;;;;4.07;2.75;;;17.20;49.00;;;;;;5058862;28;20174;-66
2021/04/23 04:23:33;;;;;;;3.22;2.40;;;17.20;49.00;;;;;;5092469;28;20182;-66
2021/04/23 04:26:00;;;;;;;4.90;2.65;;;17.20;49.00;;;;;;5093123;28;20225;-66
2021/04/23 04:28:27;;;;;;;3.05;2.28;;;17.20;49.00;;;;;;5075420;28;20161;-64
2021/04/23 04:30:54;;;;;;;2.85;2.60;;;17.20;49.10;;;;;;5074942;28;20197;-63
2021/04/23 04:33:20;;;;;;;3.75;2.78;;;17.20;49.10;;;;;;5075391;28;20180;-64
2021/04/23 04:35:45;;;;;;;3.92;2.40;;;17.20;49.20;;;;;;5092129;28;20169;-66
2021/04/23 04:38:13;;;;;;;2.85;2.05;;;17.20;49.20;;;;;;5093271;28;20178;-67
2021/04/23 04:40:39;;;;;;;2.50;2.25;;;17.20;49.10;;;;;;5074867;28;20644;-66
2021/04/23 04:43:07;;;;;;;2.88;2.60;;;17.20;49.10;;;;;;5074591;28;20218;-66
2021/04/23 04:45:32;;;;;;;3.33;2.47;;;17.20;49.10;;;;;;5092747;28;20162;-68
2021/04/23 04:47:58;;;;;;;2.67;2.17;;;17.20;49.20;;;;;;5075470;28;20244;-65
2021/04/23 04:50:27;;;;;;;2.70;2.33;;;17.10;49.10;;;;;;5092481;28;20683;-67
2021/04/23 04:52:54;;;;;;;3.95;2.30;;;17.10;49.10;;;;;;5075397;28;20166;-66
2021/04/23 04:55:20;;;;;;;3.03;2.35;;;17.10;49.20;;;;;;5092931;28;20569;-67
2021/04/23 04:57:46;;;;;;;3.45;2.60;;;17.10;49.10;;;;;;5092095;28;20166;-67
2021/04/23 05:00:12;;;;;;;3.97;2.50;;;17.10;49.20;;;;;;5093207;28;20541;-66
2021/04/23 05:02:38;;;;;;;2.28;2.05;;;17.10;49.00;;;;;;5074651;28;20285;-68
2021/04/23 05:05:05;;;;;;;2.70;2.13;;;17.20;48.90;;;;;;5074842;28;20222;-70
2021/04/23 05:07:30;;;;;;;2.40;2.20;;;17.20;48.90;;;;;;5078777;28;20553;-68
2021/04/23 05:09:57;;;;;;;2.88;2.15;;;17.20;48.80;;;;;;5079028;28;20166;-68
2021/04/23 05:12:22;;;;;;;2.67;2.20;;;17.30;49.00;;;;;;5078386;28;20542;-67
2021/04/23 05:14:48;;;;;;;2.58;2.13;;;17.30;48.90;;;;;;5078584;28;20170;-67
2021/04/23 05:17:14;;;;;;;3.03;2.33;;;17.40;48.80;;;;;;5097129;28;20575;-67
2021/04/23 05:19:39;;;;;;;3.42;2.33;;;17.50;49.40;;;;;;5061341;28;20173;-67
2021/04/23 05:22:05;;;;;;;3.97;2.17;;;17.60;48.50;;;;;;5078816;28;20212;-66
2021/04/23 05:24:31;;;;;;;2.20;2.00;;;17.70;48.40;;;;;;5078488;28;20170;-65
2021/04/23 05:26:56;;;;;;;3.10;1.85;;;17.80;48.30;;;;;;5095946;28;20267;-68
2021/04/23 05:29:22;;;;;;;3.58;2.38;;;17.90;48.20;;;;;;5062009;28;20178;-65
2021/04/23 05:31:47;;;;;;;2.25;2.03;;;18.00;48.00;;;;;;5078293;28;20257;-66
2021/04/23 05:34:13;;;;;;;2.13;1.77;;;18.10;48.00;;;;;;5095870;28;20570;-65
2021/04/23 05:36:38;;;;;;;1.83;1.60;;;18.20;47.90;;;;;;5096340;28;20174;-67
2021/04/23 05:39:04;;;;;;;2.65;2.00;;;18.20;47.80;;;;;;5095734;28;20173;-68
2021/04/23 05:41:30;;;;;;;3.45;1.98;;;18.30;47.70;;;;;;5096020;28;20206;-70
2021/04/23 05:43:55;;;;;;;3.63;1.80;;;18.30;47.70;;;;;;5096319;28;20162;-68
2021/04/23 05:46:21;;;;;;;2.13;1.80;;;18.20;47.70;;;;;;5095858;28;20223;-70
2021/04/23 05:48:47;;;;;;;2.28;1.70;;;18.20;47.70;;;;;;5095879;28;20258;-66
2021/04/23 05:51:13;;;;;;;2.75;1.50;;;18.10;47.80;;;;;;5078222;28;20182;-69
2021/04/23 05:53:39;;;;;;;2.13;1.50;;;18.10;47.90;;;;;;5060477;28;20162;-68
2021/04/23 05:56:04;;;;;;;2.20;1.55;;;18.10;48.00;;;;;;5096326;28;20180;-69
2021/04/23 05:58:30;;;;;;;1.88;1.67;;;18.00;47.90;;;;;;5095944;28;20534;-66
2021/04/23 06:00:56;;;;;;;1.80;1.67;;;18.00;48.60;;;;;;5077231;28;20166;-70
2021/04/23 06:03:21;;;;;;;2.03;1.77;;;17.90;48.00;;;;;;5077971;28;20170;-68
2021/04/23 06:05:47;;;;;;;2.40;1.70;;;18.00;48.80;;;;;;5077373;28;20182;-69
2021/04/23 06:08:12;;;;;;;1.67;1.58;;;17.90;48.30;;;;;;5095445;28;20181;-69
2021/04/23 06:10:39;;;;;;;2.20;1.33;;;17.80;48.30;;;;;;5095555;28;20652;-67
2021/04/23 06:13:05;;;;;;;3.20;1.85;;;17.80;48.50;;;;;;5095933;28;20649;-72
2021/04/23 06:15:30;;;;;;;6.20;2.15;;;17.80;48.50;;;;;;5094641;28;20223;-65
2021/04/23 06:17:56;;;;;;;2.83;1.70;;;17.80;48.80;;;;;;5095632;28;20539;-66
2021/04/23 06:20:24;;;;;;;3.22;1.55;;;17.80;49.00;;;;;;5077659;28;20181;-67
2021/04/23 06:22:50;;;;;;;4.82;2.38;;;17.80;49.20;;;;;;5094780;28;20213;-67
2021/04/23 06:25:16;;;;;;;2.95;1.77;;;17.80;49.20;;;;;;5095413;28;20201;-70
2021/04/23 06:27:42;;;;;;;5.78;2.72;;;17.80;49.20;;;;;;5077296;28;20320;-66
2021/04/23 06:30:10;;;;;;;3.00;2.03;;;17.80;49.40;;;;;;5060079;28;20282;-79
2021/04/23 06:32:36;;;;;;;3.55;1.88;;;17.80;49.50;;;;;;5060239;28;20549;-71
2021/04/23 06:35:02;;;;;;;4.22;2.10;;;17.90;49.80;;;;;;5094988;28;20162;-69
2021/04/23 06:37:28;;;;;;;4.32;2.25;;;18.00;49.80;;;;;;5076746;28;20648;-65
2021/04/23 06:39:53;;;;;;;2.72;2.25;;;18.00;50.00;;;;;;5095074;28;20635;-67
2021/04/23 06:42:19;;;;;;;2.25;2.00;;;18.00;50.00;;;;;;5094572;28;20209;-65
2021/04/23 06:44:44;;;;;;;2.97;2.50;;;18.00;50.00;;;;;;5094799;28;20527;-72
2021/04/23 06:47:10;;;;;;;4.90;2.10;;;18.00;50.00;;;;;;5077096;28;20287;-72
2021/04/23 06:49:36;;;;;;;4.28;2.25;;;18.10;50.10;;;;;;5076178;28;20177;-65
2021/04/23 06:52:02;;;;;;;4.85;2.40;;;18.10;50.80;;;;;;5077134;28;20166;-70
2021/04/23 06:54:27;;;;;;;2.75;1.85;;;18.10;50.20;;;;;;5076608;28;20173;-64
2021/04/23 06:56:53;;;;;;;3.28;1.88;;;18.10;50.20;;;;;;5094371;28;20585;-71
2021/04/23 06:59:18;;;;;;;4.50;2.40;;;18.00;50.30;;;;;;5094757;28;20248;-67
2021/04/23 07:01:44;;;;;;;5.47;1.95;;;18.10;50.30;;;;;;5076559;28;20258;-73
2021/04/23 07:04:10;;;;;;;4.18;1.83;;;18.10;50.30;;;;;;5093991;28;20186;-70
2021/04/23 07:06:39;;;;;;;3.50;2.17;;;18.10;50.80;;;;;;5059751;28;20174;-65
2021/04/23 07:09:06;;;;;;;2.33;2.03;;;18.10;50.60;;;;;;5094600;28;20158;-64
2021/04/23 07:11:31;;;;;;;1.88;1.67;;;18.00;50.40;;;;;;5075498;28;20174;-65
2021/04/23 07:13:57;;;;;;;4.25;2.15;;;18.10;50.40;;;;;;5076121;28;20227;-66
2021/04/23 07:16:22;;;;;;;3.60;1.65;;;18.10;50.30;;;;;;5076063;28;20177;-64
2021/04/23 07:18:48;;;;;;;4.32;1.83;;;18.00;50.20;;;;;;5093576;28;20526;-65
2021/04/23 07:21:14;;;;;;;3.15;1.83;;;18.00;50.70;;;;;;5094720;28;20162;-65
2021/04/23 07:23:39;;;;;;;4.68;1.98;;;18.00;50.10;;;;;;5094069;28;20178;-65
2021/04/23 07:26:05;;;;;;;2.03;1.60;;;18.00;50.20;;;;;;5093353;28;20232;-64
2021/04/23 07:28:31;;;;;;;4.47;2.13;;;18.00;50.10;;;;;;5093173;28;20217;-68
2021/04/23 07:30:56;;;;;;;2.35;2.00;;;17.90;50.10;;;;;;5076247;28;20617;-64
2021/04/23 07:33:22;;;;;;;2.88;1.85;;;18.00;50.10;;;;;;5058666;28;20170;-65
2021/04/23 07:35:49;;;;;;;3.08;2.10;;;18.00;50.20;;;;;;5093641;28;20181;-66
2021/04/23 07:38:14;;;;;;;2.97;1.45;;;18.00;50.10;;;;;;5076002;28;20235;-65
2021/04/23 07:40:40;;;;;;;2.75;1.75;;;18.00;50.10;;;;;;5057998;28;20202;-68
2021/04/23 07:43:06;;;;;;;2.33;1.80;;;18.00;50.00;;;;;;5093719;28;20574;-67
2021/04/23 07:45:31;;;;;;;3.70;2.13;;;18.10;49.90;;;;;;5093308;28;20174;-65
2021/04/23 07:47:57;;;;;;;1.80;1.55;;;18.10;49.80;;;;;;5075442;28;20708;-70
2021/04/23 07:50:24;;;;;;;2.55;1.58;;;18.10;50.30;;;;;;5058998;28;20282;-65
2021/04/23 07:52:51;;;;;;;3.45;1.65;;;18.00;49.70;;;;;;5093021;28;20166;-69
2021/04/23 07:55:17;;;;;;;2.53;1.70;;;18.10;49.70;;;;;;5059120;28;20666;-70
2021/04/23 07:57:43;;;;;;;2.85;1.80;;;18.20;49.60;;;;;;5075280;28;20209;-69
2021/04/23 08:00:10;;;;;;;3.30;1.50;;;18.30;49.60;;;;;;5041690;28;20193;-67
2021/04/23 08:02:36;;;;;;;5.65;2.05;;;18.30;49.50;;;;;;5075131;28;20209;-65
2021/04/23 08:05:03;;;;;;;3.50;1.77;;;18.40;49.30;;;;;;5058915;28;20174;-66
2021/04/23 08:07:29;;;;;;;3.30;1.83;;;18.40;49.20;;;;;;5074534;28;20178;-65
2021/04/23 08:09:54;;;;;;;2.13;1.52;;;18.30;49.30;;;;;;5093466;28;20176;-66
2021/04/23 08:12:20;;;;;;;2.58;1.73;;;18.30;49.40;;;;;;5075219;28;20170;-65
2021/04/23 08:14:45;;;;;;;3.42;1.90;;;18.20;49.50;;;;;;5092429;28;20511;-69
2021/04/23 08:17:11;;;;;;;3.42;1.70;;;18.20;49.60;;;;;;5075157;28;20238;-69
2021/04/23 08:19:37;;;;;;;3.10;2.10;;;18.10;49.60;;;;;;5074906;28;20176;-66
2021/04/23 08:22:03;;;;;;;3.38;1.98;;;18.10;49.70;;;;;;5074464;28;20209;-71
2021/04/23 08:24:28;;;;;;;3.20;1.55;;;18.10;49.80;;;;;;5058182;28;20277;-65
2021/04/23 08:26:54;;;;;;;2.40;1.55;;;18.10;49.80;;;;;;5074831;28;20297;-66
2021/04/23 08:29:20;;;;;;;1.95;1.40;;;18.10;49.80;;;;;;5074362;28;20214;-64
2021/04/23 08:31:45;;;;;;;4.82;1.73;;;18.10;49.80;;;;;;5074788;28;20177;-65
2021/04/23 08:34:11;;;;;;;2.08;1.35;;;18.10;49.70;;;;;;5074937;28;20542;-65
2021/04/23 08:36:37;;;;;;;1.90;1.60;;;18.00;49.70;;;;;;5092387;28;20581;-66
2021/04/23 08:39:05;;;;;;;2.00;1.50;;;18.10;49.70;;;;;;5074663;28;20178;-66
2021/04/23 08:41:30;;;;;;;1.75;1.60;;;18.20;49.60;;;;;;5074803;28;20205;-66
2021/04/23 08:43:56;;;;;;;2.22;1.63;;;18.10;49.50;;;;;;5057388;28;20168;-67
2021/04/23 08:46:22;;;;;;;2.95;1.80;;;18.20;49.60;;;;;;5092998;28;20212;-65
2021/04/23 08:48:48;;;;;;;2.50;1.40;;;18.10;49.60;;;;;;5074535;28;20180;-64
2021/04/23 08:51:14;;;;;;;1.73;1.52;;;18.10;49.70;;;;;;5074058;28;20174;-65
2021/04/23 08:53:39;;;;;;;2.75;1.70;;;18.10;49.80;;;;;;5057885;28;20173;-65
2021/04/23 08:56:05;;;;;;;2.78;1.50;;;18.10;49.80;;;;;;5057496;28;20188;-67
2021/04/23 08:58:31;;;;;;;3.60;2.05;;;18.00;49.80;;;;;;5074213;28;20177;-65
2021/04/23 09:00:57;;;;;;;2.60;1.70;;;18.00;49.80;;;;;;5092815;28;20182;-67
2021/04/23 09:03:24;;;;;;;2.38;1.75;;;18.00;49.80;;;;;;5074014;28;20669;-65
2021/04/23 09:06:10;;;;;;;2.85;1.65;;;18.00;49.80;;;;;;5092258;28;20656;-65
2021/04/23 09:08:36;;;;;;;1.52;1.42;;;18.10;49.70;;;;;;5075407;28;20547;-64
2021/04/23 09:11:18;;;;;;;1.98;1.60;;;18.20;49.60;;;;;;5074109;28;20166;-65
2021/04/23 09:13:56;;;;;;;2.15;1.48;;;18.30;49.30;;;;;;5092347;28;20226;-66
2021/04/23 09:16:24;;;;;;;1.98;1.40;;;18.50;49.10;;;;;;5058389;28;20170;-65
2021/04/23 09:18:49;;;;;;;1.60;1.45;;;18.50;49.00;;;;;;5057136;28;20173;-68
2021/04/23 09:21:15;;;;;;;1.92;1.60;;;18.40;49.00;;;;;;5074627;28;20161;-66
2021/04/23 09:23:52;;;;;;;1.92;1.50;;;18.40;49.20;;;;;;5074093;28;20177;-65
2021/04/23 09:26:37;;;;;;;2.63;1.45;;;18.40;49.30;;;;;;5057054;28;20225;-64
2021/04/23 09:29:06;;;;;;;2.58;1.55;;;18.30;49.40;;;;;;5075115;28;20162;-63
2021/04/23 09:31:33;;;;;;;1.48;1.20;;;18.20;49.40;;;;;;5056631;28;20177;-63
2021/04/23 09:34:03;;;;;;;3.42;1.58;;;18.20;49.60;;;;;;5074033;28;20173;-65
2021/04/23 09:36:33;;;;;;;1.27;1.17;;;18.20;49.60;;;;;;5041153;28;20257;-64
2021/04/23 09:39:15;;;;;;;1.90;1.52;;;18.30;49.40;;;;;;5091868;28;20170;-65
2021/04/23 09:41:46;;;;;;;1.40;1.30;;;18.30;49.40;;;;;;5074861;28;20197;-65
2021/04/23 09:44:28;;;;;;;1.75;1.48;;;18.30;49.50;;;;;;5041068;28;20185;-66
2021/04/23 09:47:13;;;;;;;2.15;1.40;;;18.40;49.40;;;;;;5057702;28;20526;-65
2021/04/23 09:49:39;;;;;;;2.63;1.58;;;18.50;49.30;;;;;;5076268;28;20170;-65
2021/04/23 09:52:08;;;;;;;2.45;1.77;;;18.50;49.20;;;;;;5076274;28;20208;-66
2021/04/23 09:54:34;;;;;;;2.13;1.50;;;18.50;49.20;;;;;;5061263;28;20836;-64
2021/04/23 09:57:00;;;;;;;1.42;1.23;;;18.60;49.10;;;;;;5061456;28;20261;-65
2021/04/23 09:59:29;;;;;;;2.42;1.30;;;18.60;49.00;;;;;;5095612;28;20261;-66
2021/04/23 10:01:57;;;;;;;2.13;1.55;;;18.60;48.90;;;;;;5077730;28;20236;-66
2021/04/23 10:04:24;;;;;;;2.40;1.65;;;18.70;48.90;;;;;;5077625;28;20541;-66
2021/04/23 10:07:23;;;;;;;2.67;1.50;;;18.70;48.80;;;;;;5060355;28;20184;-65
2021/04/23 10:10:11;;;;;;;1.38;1.27;;;18.70;48.80;;;;;;5063394;28;20169;-65
2021/04/23 10:12:41;;;;;;;1.90;1.30;;;18.80;48.90;;;;;;5062007;28;20708;-66
2021/04/23 10:15:10;;;;;;;2.70;1.23;;;18.70;48.80;;;;;;5076889;28;20177;-65
2021/04/23 10:17:36;;;;;;;1.65;1.33;;;18.70;49.00;;;;;;5095528;28;20222;-64
2021/04/23 10:20:02;;;;;;;1.42;1.30;;;18.70;49.20;;;;;;5095635;28;20174;-66
2021/04/23 10:22:28;;;;;;;2.10;1.30;;;18.70;49.20;;;;;;5060077;28;20230;-65
2021/04/23 10:24:54;;;;;;;1.30;1.15;;;18.80;49.90;;;;;;5095409;28;20208;-66
2021/04/23 10:27:20;;;;;;;1.85;1.40;;;18.80;49.30;;;;;;5094570;28;20549;-65
2021/04/23 10:29:47;;;;;;;3.92;1.30;;;18.90;49.30;;;;;;5095146;28;20193;-64
2021/04/23 10:32:13;;;;;;;1.85;1.30;;;18.90;49.30;;;;;;5095346;28;20222;-65
2021/04/23 10:34:40;;;;;;;3.42;1.60;;;18.90;49.30;;;;;;5094518;28;20201;-65
2021/04/23 10:37:06;;;;;;;2.85;1.40;;;18.90;49.30;;;;;;5095377;28;20256;-68
2021/04/23 10:39:36;;;;;;;2.97;1.35;;;18.90;49.30;;;;;;5076945;28;20300;-66
2021/04/23 10:42:02;;;;;;;6.03;2.17;;;19.00;49.40;;;;;;5076676;28;20658;-66
2021/04/23 10:44:58;;;;;;;3.38;1.40;;;19.00;49.50;;;;;;5059979;28;20182;-66
2021/04/23 10:47:36;;;;;;;2.80;1.50;;;18.90;49.70;;;;;;5077867;28;20242;-64
2021/04/23 10:50:07;;;;;;;4.40;1.30;;;18.80;49.80;;;;;;5094434;28;20646;-65
2021/04/23 10:52:33;;;;;;;3.08;1.30;;;18.80;49.90;;;;;;5094596;28;20177;-65
2021/04/23 10:55:04;;;;;;;1.75;1.00;;;18.80;50.00;;;;;;5076768;28;20231;-64
2021/04/23 10:57:52;;;;;;;3.03;1.17;;;18.80;49.80;;;;;;5076323;28;20634;-66
2021/04/23 11:00:44;;;;;;;2.17;1.45;;;18.90;49.80;;;;;;5076709;28;20193;-68
2021/04/23 11:03:35;;;;;;;6.00;1.85;;;19.00;49.70;;;;;;5075980;28;20204;-66
2021/04/23 11:06:03;;;;;;;2.58;1.38;;;19.00;49.60;;;;;;5076379;28;20174;-66
2021/04/23 11:08:31;;;;;;;4.35;1.17;;;18.90;49.80;;;;;;5076674;28;20169;-68
2021/04/23 11:11:00;;;;;;;3.38;1.00;;;18.80;50.60;;;;;;5059350;28;20205;-68
2021/04/23 11:13:29;;;;;;;5.28;1.55;;;18.80;50.10;;;;;;5094609;28;20211;-70
2021/04/23 11:16:20;;;;;;;4.03;1.70;;;18.80;50.20;;;;;;5076869;28;20166;-65
2021/04/23 11:18:51;;;;;;;2.88;1.30;;;18.80;50.20;;;;;;5093671;28;20173;-74
2021/04/23 11:21:37;;;;;;;4.15;1.15;;;19.00;50.00;;;;;;5060227;28;20166;-66
2021/04/23 11:24:16;;;;;;;1.83;1.10;;;19.00;50.00;;;;;;5075803;28;20170;-72
2021/04/23 11:29:29;;;;;;;2.58;1.13;;;18.80;50.20;;;;;;5094124;28;20178;-65
2021/04/23 11:32:06;;;;;;;5.15;1.63;;;18.80;50.40;;;;;;5076901;28;20169;-66
2021/04/23 11:34:37;;;;;;;3.70;1.52;;;18.80;50.40;;;;;;5093980;28;20166;-64
2021/04/23 11:37:22;;;;;;;5.45;1.75;;;18.80;50.40;;;;;;5094131;28;20199;-66
2021/04/23 11:39:51;;;;;;;2.10;1.25;;;18.80;50.50;;;;;;5075149;28;20174;-68
2021/04/23 11:42:19;;;;;;;6.03;1.25;;;18.70;50.50;;;;;;5076254;28;20194;-68
2021/04/23 11:44:55;;;;;;;8.80;2.60;;;18.90;50.40;;;;;;5093272;28;20246;-75
2021/04/23 11:47:27;;;;;;;6.07;1.70;;;18.90;50.30;;;;;;5094136;28;20215;-69
2021/04/23 11:50:20;;;;;;;3.33;1.67;;;18.90;50.40;;;;;;5093881;28;20228;-73
2021/04/23 11:52:50;;;;;;;4.55;1.60;;;18.80;50.40;;;;;;5070918;28;20181;-69
2021/04/23 11:55:30;;;;;;;4.20;1.40;;;18.80;50.60;;;;;;5059386;28;20601;-70
2021/04/23 11:58:02;;;;;;;4.47;1.40;;;18.80;50.60;;;;;;5075486;28;20184;-72
2021/04/23 12:00:29;;;;;;;3.90;1.50;;;18.80;50.60;;;;;;5075003;28;20254;-71
2021/04/23 12:03:07;;;;;;;3.92;1.40;;;18.80;51.20;;;;;;5094140;28;20208;-71
2021/04/23 12:05:34;;;;;;;5.00;1.60;;;18.80;50.60;;;;;;5075737;28;20641;-65
2021/04/23 12:08:07;;;;;;;9.38;2.05;;;18.80;50.60;;;;;;5092922;28;20173;-65
2021/04/23 12:10:34;;;;;;;5.00;1.60;;;18.80;50.50;;;;;;5059027;28;20166;-64
2021/04/23 12:13:00;;;;;;;5.53;1.90;;;18.90;50.50;;;;;;5057964;28;20265;-67
2021/04/23 12:15:30;;;;;;;2.65;1.70;;;19.00;50.30;;;;;;5074958;28;20605;-66
2021/04/23 12:17:57;;;;;;;7.75;1.75;;;19.00;50.30;;;;;;5059361;28;20166;-65
2021/04/23 12:20:26;;;;;;;5.70;1.73;;;19.10;50.10;;;;;;5074272;28;20756;-64
2021/04/23 12:22:52;;;;;;;6.05;1.33;;;19.10;50.30;;;;;;5092871;28;20288;-64
2021/04/23 12:25:18;;;;;;;9.73;1.65;;;19.00;50.40;;;;;;5058399;28;20220;-64
2021/04/23 12:27:44;;;;;;;6.90;1.60;;;19.00;50.50;;;;;;5074029;28;20663;-64
2021/04/23 12:30:10;;;;;;;6.53;2.08;;;19.00;50.50;;;;;;5093073;28;20253;-63
2021/04/23 12:32:36;;;;;;;9.63;1.63;;;19.00;50.50;;;;;;5058254;28;20691;-63
2021/04/23 12:35:02;;;;;;;6.75;1.70;;;19.10;50.40;;;;;;5074271;28;20169;-63
2021/04/23 12:37:28;;;;;;;7.68;2.00;;;19.30;50.20;;;;;;5074864;28;20652;-65
2021/04/23 12:39:54;;;;;;;5.28;1.70;;;19.30;50.10;;;;;;5092764;28;20166;-66
2021/04/23 12:42:19;;;;;;;3.20;1.60;;;19.20;50.10;;;;;;5091946;28;20210;-65
2021/04/23 12:44:45;;;;;;;6.70;2.10;;;19.20;50.30;;;;;;5057524;28;20615;-65
2021/04/23 12:47:11;;;;;;;3.45;1.30;;;19.10;50.30;;;;;;5074844;28;20202;-64
2021/04/23 12:49:41;;;;;;;4.43;1.83;;;19.10;50.30;;;;;;5073951;28;20189;-61
2021/04/23 12:52:16;;;;;;;6.78;1.63;;;19.10;50.40;;;;;;5092973;28;20261;-63
2021/04/23 12:54:45;;;;;;;5.32;1.70;;;19.10;51.10;;;;;;5092363;28;20260;-64